createdAt,value
2023-10-26T00:02:29.022Z,99628.63
2023-10-26T00:05:03.552Z,99621.94
2023-10-26T00:07:36.733Z,99622.72
2023-10-26T00:10:10.537Z,99625.50
2023-10-26T00:12:43.801Z,99625.13
2023-10-26T00:15:16.869Z,99626.25
2023-10-26T00:17:50.247Z,99624.34
2023-10-26T00:20:25.169Z,99631.03
2023-10-26T00:22:58.259Z,99618.91
2023-10-26T00:25:31.590Z,99620.47
2023-10-26T00:28:04.914Z,99624.44
2023-10-26T00:30:38.419Z,99624.44
2023-10-26T00:33:12.084Z,99617.38
2023-10-26T00:35:46.689Z,99627.19
2023-10-26T00:38:20.064Z,99623.66
2023-10-26T00:40:53.119Z,99622.09
2023-10-26T00:43:26.955Z,99620.56
2023-10-26T00:46:00.661Z,99619.00
2023-10-26T00:48:34.183Z,99613.50
2023-10-26T00:51:08.946Z,99609.25
2023-10-26T00:53:45.370Z,99612.00
2023-10-26T00:56:20.474Z,99615.56
2023-10-26T00:58:54.317Z,99610.88
2023-10-26T01:01:29.127Z,99609.69
2023-10-26T01:04:04.456Z,99615.94
2023-10-26T01:06:38.888Z,99617.53
2023-10-26T01:09:14.636Z,99606.97
2023-10-26T01:11:48.301Z,99599.94
2023-10-26T01:14:21.806Z,99601.44
2023-10-26T01:16:55.234Z,99607.38
2023-10-26T01:19:41.668Z,99603.44
2023-10-26T01:22:16.547Z,99599.59
2023-10-26T01:24:49.957Z,99599.94
2023-10-26T01:27:23.479Z,99602.63
2023-10-26T01:29:56.553Z,99608.56
2023-10-26T01:32:29.698Z,99612.88
2023-10-26T01:35:03.082Z,99612.16
2023-10-26T01:37:40.480Z,99613.28
2023-10-26T01:40:14.111Z,99622.31
2023-10-26T01:42:47.239Z,99625.44
2023-10-26T01:45:20.508Z,99623.88
2023-10-26T01:47:55.728Z,99619.19
2023-10-26T01:50:29.255Z,99626.25
2023-10-26T01:53:05.065Z,99620.75
2023-10-26T01:55:38.103Z,99618.44
2023-10-26T01:58:11.707Z,99620.75
2023-10-26T02:00:44.919Z,99621.16
2023-10-26T02:03:19.798Z,99620.00
2023-10-26T02:05:53.125Z,99609.03
2023-10-26T02:08:27.704Z,99603.19
2023-10-26T02:11:00.977Z,99602.38
2023-10-26T02:13:36.557Z,99591.03
2023-10-26T02:16:10.637Z,99593.81
2023-10-26T02:18:45.911Z,99593.81
2023-10-26T02:21:19.536Z,99604.31
2023-10-26T02:23:54.255Z,99599.25
2023-10-26T02:26:27.606Z,99590.66
2023-10-26T02:29:03.629Z,99585.16
2023-10-26T02:31:36.960Z,99590.25
2023-10-26T02:34:10.289Z,99584.03
2023-10-26T02:36:44.533Z,99588.69
2023-10-26T02:39:19.194Z,99584.00
2023-10-26T02:41:52.427Z,99592.59
2023-10-26T02:44:25.538Z,99592.63
2023-10-26T02:46:58.800Z,99594.22
2023-10-26T02:49:33.240Z,99588.31
2023-10-26T02:52:07.467Z,99588.28
2023-10-26T02:54:44.118Z,99585.59
2023-10-26T02:57:17.777Z,99594.59
2023-10-26T02:59:51.346Z,99592.59
2023-10-26T03:02:24.900Z,99582.88
2023-10-26T03:04:58.217Z,99583.28
2023-10-26T03:07:31.983Z,99583.25
2023-10-26T03:10:07.974Z,99575.44
2023-10-26T03:12:42.222Z,99573.84
2023-10-26T03:15:15.564Z,99565.66
2023-10-26T03:17:49.580Z,99562.16
2023-10-26T03:20:22.490Z,99568.03
2023-10-26T03:22:55.924Z,99570.38
2023-10-26T03:25:31.012Z,99573.91
2023-10-26T03:28:04.154Z,99579.38
2023-10-26T03:30:38.385Z,99577.00
2023-10-26T03:33:11.739Z,99574.28
2023-10-26T03:35:44.908Z,99563.34
2023-10-26T03:38:17.851Z,99559.03
2023-10-26T03:40:53.506Z,99551.19
2023-10-26T03:43:26.846Z,99553.16
2023-10-26T03:45:59.915Z,99544.13
2023-10-26T03:48:33.478Z,99541.81
2023-10-26T03:51:07.082Z,99534.00
2023-10-26T03:53:40.692Z,99537.88
2023-10-26T03:56:15.262Z,99542.97
2023-10-26T03:58:49.206Z,99531.63
2023-10-26T04:01:23.156Z,99534.72
2023-10-26T04:03:56.504Z,99533.22
2023-10-26T04:06:31.129Z,99534.38
2023-10-26T04:09:04.573Z,99537.13
2023-10-26T04:11:39.518Z,99540.25
2023-10-26T04:14:13.353Z,99535.56
2023-10-26T04:16:49.012Z,99541.81
2023-10-26T04:19:22.329Z,99536.34
2023-10-26T04:21:58.482Z,99537.91
2023-10-26T04:24:31.668Z,99534.38
2023-10-26T04:27:06.998Z,99528.50
2023-10-26T04:29:40.244Z,99531.28
2023-10-26T04:32:13.634Z,99529.28
2023-10-26T04:34:47.473Z,99535.16
2023-10-26T04:37:20.925Z,99537.13
2023-10-26T04:39:53.952Z,99544.97
2023-10-26T04:42:28.454Z,99545.75
2023-10-26T04:45:01.784Z,99543.41
2023-10-26T04:47:35.150Z,99552.84
2023-10-26T04:50:09.821Z,99547.31
2023-10-26T04:52:43.057Z,99549.66
2023-10-26T04:55:16.553Z,99541.88
2023-10-26T04:57:51.131Z,99536.38
2023-10-26T05:00:24.440Z,99542.66
2023-10-26T05:02:57.522Z,99530.91
2023-10-26T05:05:31.372Z,99537.16
2023-10-26T05:08:07.551Z,99535.22
2023-10-26T05:10:41.766Z,99538.00
2023-10-26T05:13:16.526Z,99530.56
2023-10-26T05:15:49.990Z,99533.31
2023-10-26T05:18:23.406Z,99533.31
2023-10-26T05:20:56.636Z,99527.47
2023-10-26T05:23:29.677Z,99523.19
2023-10-26T05:26:02.826Z,99513.00
2023-10-26T05:28:37.822Z,99505.16
2023-10-26T05:31:10.849Z,99513.00
2023-10-26T05:33:44.284Z,99520.44
2023-10-26T05:36:17.379Z,99509.09
2023-10-26T05:38:52.151Z,99508.28
2023-10-26T05:41:25.100Z,99511.44
2023-10-26T05:43:59.395Z,99505.19
2023-10-26T05:46:32.675Z,99507.53
2023-10-26T05:49:06.330Z,99500.50
2023-10-26T05:51:39.648Z,99497.38
2023-10-26T05:54:12.871Z,99489.56
2023-10-26T05:56:46.255Z,99486.81
2023-10-26T05:59:20.483Z,99483.28
2023-10-26T06:01:53.669Z,99479.38
2023-10-26T06:04:27.194Z,99473.16
2023-10-26T06:07:00.259Z,99478.59
2023-10-26T06:09:33.339Z,99469.25
2023-10-26T06:12:06.905Z,99470.00
2023-10-26T06:14:41.764Z,99470.03
2023-10-26T06:17:15.360Z,99466.50
2023-10-26T06:19:48.542Z,99461.06
2023-10-26T06:22:21.722Z,99465.34
2023-10-26T06:24:54.871Z,99463.00
2023-10-26T06:27:28.359Z,99472.78
2023-10-26T06:30:04.833Z,99473.19
2023-10-26T06:32:37.848Z,99469.66
2023-10-26T06:35:12.061Z,99466.94
2023-10-26T06:37:46.695Z,99489.25
2023-10-26T06:40:20.184Z,99486.47
2023-10-26T06:42:53.124Z,99486.88
2023-10-26T06:45:27.314Z,99492.75
2023-10-26T06:48:00.265Z,99491.97
2023-10-26T06:50:32.986Z,99488.81
2023-10-26T06:53:05.744Z,99496.25
2023-10-26T06:55:38.605Z,99494.31
2023-10-26T06:58:11.695Z,99495.44
2023-10-26T07:00:50.176Z,99491.56
2023-10-26T07:03:26.417Z,99487.25
2023-10-26T07:06:02.405Z,99490.38
2023-10-26T07:08:35.722Z,99491.94
2023-10-26T07:11:08.918Z,99502.47
2023-10-26T07:13:41.870Z,99498.16
2023-10-26T07:16:15.930Z,99499.34
2023-10-26T07:18:48.747Z,99498.97
2023-10-26T07:21:21.898Z,99497.38
2023-10-26T07:23:55.081Z,99491.09
2023-10-26T07:26:28.181Z,99489.91
2023-10-26T07:29:01.821Z,99496.53
2023-10-26T07:31:36.148Z,99493.00
2023-10-26T07:34:09.005Z,99498.84
2023-10-26T07:36:41.816Z,99507.47
2023-10-26T07:39:48.372Z,99505.47
2023-10-26T07:42:09.177Z,99502.75
2023-10-26T07:44:42.464Z,99495.69
2023-10-26T07:47:17.221Z,99501.16
2023-10-26T07:49:50.156Z,99489.38
2023-10-26T07:52:22.850Z,99485.88
2023-10-26T07:54:55.743Z,99482.31
2023-10-26T07:57:28.575Z,99483.88
2023-10-26T08:00:02.170Z,99485.06
2023-10-26T08:02:47.229Z,99487.38
2023-10-26T08:05:20.298Z,99483.84
2023-10-26T08:07:53.682Z,99487.34
2023-10-26T08:10:27.329Z,99486.16
2023-10-26T08:13:00.700Z,99482.22
2023-10-26T08:16:09.582Z,99485.34
2023-10-26T08:18:28.237Z,99493.88
2023-10-26T08:21:03.412Z,99489.22
2023-10-26T08:23:36.890Z,99489.97
2023-10-26T08:26:11.405Z,99495.41
2023-10-26T08:28:44.213Z,99495.38
2023-10-26T08:31:17.081Z,99495.38
2023-10-26T08:33:51.721Z,99496.16
2023-10-26T08:36:26.217Z,99496.50
2023-10-26T08:38:59.111Z,99485.88
2023-10-26T08:41:34.768Z,99481.97
2023-10-26T08:44:08.149Z,99481.09
2023-10-26T08:46:41.641Z,99492.72
2023-10-26T08:49:17.373Z,99494.25
2023-10-26T08:51:50.290Z,99490.97
2023-10-26T08:54:22.885Z,99485.06
2023-10-26T08:56:55.784Z,99485.00
2023-10-26T08:59:29.558Z,99477.03
2023-10-26T09:02:02.602Z,99480.16
2023-10-26T09:04:36.980Z,99477.66
2023-10-26T09:07:09.989Z,99479.47
2023-10-26T09:09:46.343Z,99486.44
2023-10-26T09:12:19.229Z,99491.75
2023-10-26T09:15:01.562Z,99482.91
2023-10-26T09:17:36.296Z,99482.81
2023-10-26T09:20:30.222Z,99477.25
2023-10-26T09:23:04.727Z,99477.16
2023-10-26T09:25:37.465Z,99475.56
2023-10-26T09:28:12.327Z,99479.03
2023-10-26T09:30:46.383Z,99472.69
2023-10-26T09:33:26.608Z,99473.78
2023-10-26T09:36:12.336Z,99477.31
2023-10-26T09:38:45.985Z,99478.59
2023-10-26T09:41:21.161Z,99469.94
2023-10-26T09:43:54.008Z,99472.59
2023-10-26T09:46:27.596Z,99472.56
2023-10-26T09:49:00.663Z,99473.22
2023-10-26T09:51:35.396Z,99465.63
2023-10-26T09:54:09.911Z,99464.75
2023-10-26T09:56:50.171Z,99463.88
2023-10-26T09:59:24.128Z,99464.06
2023-10-26T10:01:57.227Z,99468.16
2023-10-26T10:04:38.542Z,99466.66
2023-10-26T10:07:18.987Z,99476.09
2023-10-26T10:10:08.470Z,99470.59
2023-10-26T10:12:43.758Z,99466.41
2023-10-26T10:15:40.070Z,99470.97
2023-10-26T10:18:12.726Z,99461.53
2023-10-26T10:20:48.901Z,99450.09
2023-10-26T10:23:32.838Z,99451.94
2023-10-26T10:26:24.005Z,99454.63
2023-10-26T10:29:18.749Z,99446.22
2023-10-26T10:31:51.450Z,99441.41
2023-10-26T10:34:26.541Z,99437.66
2023-10-26T10:37:16.217Z,99436.78
2023-10-26T10:40:12.869Z,99430.06
2023-10-26T10:42:48.869Z,99428.53
2023-10-26T10:45:24.673Z,99426.00
2023-10-26T10:47:57.668Z,99430.50
2023-10-26T10:50:31.168Z,99429.84
2023-10-26T10:53:03.787Z,99423.72
2023-10-26T10:55:38.096Z,99421.06
2023-10-26T10:58:11.395Z,99433.22
2023-10-26T11:00:46.937Z,99426.22
2023-10-26T11:03:20.347Z,99419.91
2023-10-26T11:05:53.232Z,99418.28
2023-10-26T11:08:27.405Z,99420.69
2023-10-26T11:11:01.790Z,99428.88
2023-10-26T11:13:34.727Z,99437.00
2023-10-26T11:16:17.255Z,99442.69
2023-10-26T11:18:50.078Z,99428.91
2023-10-26T11:21:22.959Z,99423.38
2023-10-26T11:23:55.864Z,99420.00
2023-10-26T11:26:29.962Z,99430.09
2023-10-26T11:29:05.136Z,99424.91
2023-10-26T11:31:42.604Z,99428.88
2023-10-26T11:34:15.673Z,99424.91
2023-10-26T11:36:48.863Z,99423.28
2023-10-26T11:39:21.719Z,99427.13
2023-10-26T11:41:56.675Z,99419.13
2023-10-26T11:44:31.014Z,99410.91
2023-10-26T11:47:04.216Z,99413.41
2023-10-26T11:49:40.849Z,99416.69
2023-10-26T11:52:14.128Z,99417.47
2023-10-26T11:54:56.901Z,99421.63
2023-10-26T11:57:31.238Z,99414.38
2023-10-26T12:00:07.114Z,99416.34
2023-10-26T12:02:45.662Z,99418.56
2023-10-26T12:05:20.969Z,99416.75
2023-10-26T12:07:54.331Z,99412.91
2023-10-26T12:10:27.903Z,99411.69
2023-10-26T12:13:02.597Z,99409.81
2023-10-26T12:15:37.267Z,99408.53
2023-10-26T12:18:10.220Z,99408.84
2023-10-26T12:20:43.159Z,99412.47
2023-10-26T12:23:16.189Z,99416.03
2023-10-26T12:25:49.405Z,99420.41
2023-10-26T12:28:27.146Z,99424.13
2023-10-26T12:31:02.555Z,99419.38
2023-10-26T12:33:39.691Z,99409.03
2023-10-26T12:36:13.288Z,99409.69
2023-10-26T12:38:46.044Z,99404.28
2023-10-26T12:41:19.143Z,99406.97
2023-10-26T12:43:53.394Z,99405.25
2023-10-26T12:46:26.229Z,99398.84
2023-10-26T12:48:59.052Z,99401.47
2023-10-26T12:51:32.065Z,99400.69
2023-10-26T12:54:10.902Z,99395.88
2023-10-26T12:56:44.427Z,99386.25
2023-10-26T12:59:18.604Z,99385.94
2023-10-26T13:01:51.656Z,99381.97
2023-10-26T13:04:24.372Z,99380.16
2023-10-26T13:06:58.600Z,99377.19
2023-10-26T13:09:31.502Z,99373.88
2023-10-26T13:12:05.218Z,99371.22
2023-10-26T13:14:39.448Z,99368.28
2023-10-26T13:17:12.910Z,99361.28
2023-10-26T13:19:46.183Z,99364.19
2023-10-26T13:22:19.704Z,99361.22
2023-10-26T13:24:52.869Z,99359.31
2023-10-26T13:27:26.758Z,99351.78
2023-10-26T13:30:00.968Z,99354.88
2023-10-26T13:32:33.870Z,99353.44
2023-10-26T13:35:06.989Z,99355.69
2023-10-26T13:37:40.010Z,99355.59
2023-10-26T13:40:13.458Z,99358.00
2023-10-26T13:42:46.753Z,99364.81
2023-10-26T13:45:23.332Z,99357.13
2023-10-26T13:47:57.015Z,99356.09
2023-10-26T13:50:29.717Z,99360.31
2023-10-26T13:53:02.712Z,99345.31
2023-10-26T13:55:36.773Z,99350.41
2023-10-26T13:58:09.895Z,99344.34
2023-10-26T14:00:44.038Z,99335.75
2023-10-26T14:03:16.916Z,99334.97
2023-10-26T14:05:53.302Z,99336.47
2023-10-26T14:08:33.068Z,99314.72
2023-10-26T14:11:06.570Z,99312.31
2023-10-26T14:13:40.696Z,99305.16
2023-10-26T14:16:15.984Z,99305.41
2023-10-26T14:18:49.271Z,99301.28
2023-10-26T14:21:22.829Z,99292.66
2023-10-26T14:23:55.563Z,99292.66
2023-10-26T14:26:28.452Z,99288.34
2023-10-26T14:29:01.758Z,99284.03
2023-10-26T14:31:35.877Z,99283.78
2023-10-26T14:34:08.782Z,99281.16
2023-10-26T14:36:41.813Z,99282.56
2023-10-26T14:39:14.664Z,99280.81
2023-10-26T14:41:47.615Z,99287.88
2023-10-26T14:44:20.276Z,99285.44
2023-10-26T14:46:54.350Z,99289.41
2023-10-26T14:49:27.516Z,99285.88
2023-10-26T14:52:01.232Z,99286.75
2023-10-26T14:54:34.182Z,99290.81
2023-10-26T14:57:07.270Z,99293.91
2023-10-26T14:59:40.997Z,99298.84
2023-10-26T15:02:16.349Z,99298.25
2023-10-26T15:04:50.921Z,99303.78
2023-10-26T15:07:23.977Z,99302.88
2023-10-26T15:10:20.003Z,99297.03
2023-10-26T15:12:49.809Z,99293.50
2023-10-26T15:15:23.041Z,99291.72
2023-10-26T15:17:57.854Z,99281.34
2023-10-26T15:20:31.901Z,99278.59
2023-10-26T15:23:05.053Z,99272.41
2023-10-26T15:25:38.342Z,99277.16
2023-10-26T15:28:11.320Z,99273.63
2023-10-26T15:30:44.212Z,99268.63
2023-10-26T15:33:19.306Z,99273.03
2023-10-26T15:35:53.029Z,99268.72
2023-10-26T15:38:28.934Z,99276.13
2023-10-26T15:41:04.414Z,99265.09
2023-10-26T15:43:37.545Z,99273.09
2023-10-26T15:46:11.029Z,99288.53
2023-10-26T15:49:30.562Z,99286.72
2023-10-26T15:51:38.570Z,99280.50
2023-10-26T15:54:11.867Z,99274.00
2023-10-26T15:56:45.190Z,99281.44
2023-10-26T15:59:18.142Z,99277.94
2023-10-26T16:01:50.906Z,99268.81
2023-10-26T16:04:25.609Z,99264.09
2023-10-26T16:07:00.107Z,99261.06
2023-10-26T16:09:35.690Z,99273.63
2023-10-26T16:12:10.875Z,99265.78
2023-10-26T16:14:44.415Z,99255.22
2023-10-26T16:17:17.675Z,99251.69
2023-10-26T16:19:51.894Z,99257.28
2023-10-26T16:22:25.012Z,99250.31
2023-10-26T16:24:58.135Z,99270.09
2023-10-26T16:27:31.274Z,99284.31
2023-10-26T16:30:04.889Z,99282.75
2023-10-26T16:32:38.835Z,99292.22
2023-10-26T16:35:13.637Z,99277.31
2023-10-26T16:37:46.890Z,99271.13
2023-10-26T16:40:20.184Z,99275.00
2023-10-26T16:42:53.273Z,99271.03
2023-10-26T16:45:26.595Z,99269.91
2023-10-26T16:47:59.890Z,99271.47
2023-10-26T16:50:34.268Z,99265.97
2023-10-26T16:53:19.394Z,99260.28
2023-10-26T16:56:01.393Z,99250.81
2023-10-26T16:58:35.112Z,99259.13
2023-10-26T17:01:11.296Z,99259.50
2023-10-26T17:03:46.778Z,99260.34
2023-10-26T17:06:21.762Z,99255.63
2023-10-26T17:08:54.984Z,99257.09
2023-10-26T17:11:28.151Z,99252.94
2023-10-26T17:14:01.686Z,99262.75
2023-10-26T17:16:34.815Z,99266.28
2023-10-26T17:19:09.262Z,99269.09
2023-10-26T17:21:43.800Z,99258.63
2023-10-26T17:24:17.017Z,99259.81
2023-10-26T17:26:50.989Z,99261.00
2023-10-26T17:29:24.110Z,99263.75
2023-10-26T17:31:57.405Z,99263.75
2023-10-26T17:34:34.195Z,99272.38
2023-10-26T17:37:09.375Z,99273.50
2023-10-26T17:39:43.792Z,99265.34
2023-10-26T17:42:17.244Z,99272.00
2023-10-26T17:44:51.371Z,99270.84
2023-10-26T17:47:24.872Z,99262.91
2023-10-26T17:49:58.308Z,99257.41
2023-10-26T17:52:35.934Z,99255.88
2023-10-26T17:55:10.399Z,99258.63
2023-10-26T17:57:45.718Z,99258.09
2023-10-26T18:00:19.901Z,99261.28
2023-10-26T18:02:53.650Z,99255.78
2023-10-26T18:05:28.316Z,99255.00
2023-10-26T18:08:02.904Z,99244.84
2023-10-26T18:10:36.328Z,99246.41
2023-10-26T18:13:09.306Z,99229.13
2023-10-26T18:15:42.105Z,99224.44
2023-10-26T18:18:16.056Z,99219.72
2023-10-26T18:20:59.968Z,99217.38
2023-10-26T18:23:35.789Z,99220.16
2023-10-26T18:26:10.345Z,99218.53
2023-10-26T18:28:45.587Z,99217.22
2023-10-26T18:31:21.867Z,99213.38
2023-10-26T18:33:56.445Z,99207.53
2023-10-26T18:36:29.635Z,99211.81
2023-10-26T18:39:04.363Z,99214.91
2023-10-26T18:41:37.569Z,99205.59
2023-10-26T18:44:10.472Z,99200.97
2023-10-26T18:46:43.412Z,99209.22
2023-10-26T18:49:17.392Z,99210.09
2023-10-26T18:51:50.914Z,99207.34
2023-10-26T18:54:25.193Z,99212.50
2023-10-26T18:56:58.579Z,99211.88
2023-10-26T18:59:31.732Z,99205.94
2023-10-26T19:02:04.961Z,99197.78
2023-10-26T19:04:38.008Z,99207.53
2023-10-26T19:07:12.298Z,99200.09
2023-10-26T19:09:47.083Z,99198.91
2023-10-26T19:12:20.766Z,99195.53
2023-10-26T19:14:54.419Z,99198.91
2023-10-26T19:17:27.631Z,99196.25
2023-10-26T19:20:01.039Z,99186.16
2023-10-26T19:22:34.857Z,99191.16
2023-10-26T19:25:10.252Z,99209.72
2023-10-26T19:27:45.284Z,99212.75
2023-10-26T19:30:19.789Z,99217.50
2023-10-26T19:32:53.273Z,99225.41
2023-10-26T19:35:27.448Z,99230.72
2023-10-26T19:38:00.509Z,99227.13
2023-10-26T19:40:34.972Z,99220.09
2023-10-26T19:43:08.413Z,99214.03
2023-10-26T19:45:43.574Z,99206.59
2023-10-26T19:48:17.767Z,99204.59
2023-10-26T19:50:50.877Z,99204.59
2023-10-26T19:53:23.922Z,99204.66
2023-10-26T19:55:58.926Z,99206.66
2023-10-26T19:58:32.019Z,99208.91
2023-10-26T20:01:06.127Z,99206.50
2023-10-26T20:03:39.016Z,99200.66
2023-10-26T20:06:11.916Z,99201.75
2023-10-26T20:08:45.055Z,99197.72
2023-10-26T20:11:19.426Z,99196.75
2023-10-26T20:13:53.510Z,99197.19
2023-10-26T20:16:26.809Z,99196.69
2023-10-26T20:19:01.015Z,99203.13
2023-10-26T20:21:35.550Z,99200.66
2023-10-26T20:24:10.498Z,99194.59
2023-10-26T20:26:45.099Z,99204.94
2023-10-26T20:29:18.699Z,99206.75
2023-10-26T20:31:51.475Z,99198.13
2023-10-26T20:34:25.382Z,99206.66
2023-10-26T20:36:58.703Z,99197.00
2023-10-26T20:39:31.873Z,99188.16
2023-10-26T20:42:07.310Z,99180.22
2023-10-26T20:44:40.683Z,99186.34
2023-10-26T20:47:13.987Z,99175.88
2023-10-26T20:49:49.371Z,99182.72
2023-10-26T20:52:23.016Z,99170.66
2023-10-26T20:54:56.861Z,99178.47
2023-10-26T20:57:31.610Z,99174.53
2023-10-26T21:00:05.611Z,99161.53
2023-10-26T21:02:40.524Z,99166.69
2023-10-26T21:05:13.416Z,99163.44
2023-10-26T21:07:46.349Z,99162.41
2023-10-26T21:10:19.626Z,99158.94
2023-10-26T21:12:54.541Z,99152.38
2023-10-26T21:15:27.706Z,99139.03
2023-10-26T21:18:00.956Z,99143.97
2023-10-26T21:20:35.881Z,99143.69
2023-10-26T21:23:09.564Z,99138.31
2023-10-26T21:25:44.142Z,99137.06
2023-10-26T21:28:18.778Z,99139.84
2023-10-26T21:30:54.206Z,99138.75
2023-10-26T21:33:27.724Z,99139.25
2023-10-26T21:36:00.834Z,99126.09
2023-10-26T21:38:33.928Z,99124.22
2023-10-26T21:41:07.546Z,99123.50
2023-10-26T21:43:42.552Z,99118.94
2023-10-26T21:46:15.973Z,99125.22
2023-10-26T21:48:49.778Z,99120.94
2023-10-26T21:51:23.540Z,99116.56
2023-10-26T21:53:56.718Z,99110.88
2023-10-26T21:56:29.463Z,99119.22
2023-10-26T21:59:04.140Z,99121.97
2023-10-26T22:01:37.811Z,99111.81
2023-10-26T22:04:21.942Z,99109.34
2023-10-26T22:06:56.927Z,99112.50
2023-10-26T22:09:33.580Z,99096.00
2023-10-26T22:12:10.039Z,99102.03
2023-10-26T22:14:45.468Z,99101.66
2023-10-26T22:17:18.960Z,99106.31
2023-10-26T22:19:53.084Z,99100.81
2023-10-26T22:22:26.607Z,99111.72
2023-10-26T22:25:00.348Z,99105.78
2023-10-26T22:27:34.349Z,99108.66
2023-10-26T22:30:11.814Z,99099.06
2023-10-26T22:32:45.315Z,99089.81
2023-10-26T22:35:18.929Z,99090.66
2023-10-26T22:37:52.796Z,99075.63
2023-10-26T22:40:26.658Z,99081.56
2023-10-26T22:43:00.267Z,99081.03
2023-10-26T22:45:34.825Z,99080.19
2023-10-26T22:48:08.820Z,99078.44
2023-10-26T22:50:42.397Z,99081.41
2023-10-26T22:53:16.946Z,99083.09
2023-10-26T22:55:51.225Z,99086.03
2023-10-26T22:58:26.078Z,99091.09
2023-10-26T23:01:05.997Z,99090.50
2023-10-26T23:03:39.168Z,99088.28
2023-10-26T23:06:12.792Z,99086.91
2023-10-26T23:08:46.284Z,99088.28
2023-10-26T23:11:22.961Z,99086.91
2023-10-26T23:13:56.326Z,99079.16
2023-10-26T23:16:31.429Z,99083.78
2023-10-26T23:19:06.458Z,99080.88
2023-10-26T23:21:39.708Z,99078.97
2023-10-26T23:24:13.393Z,99078.09
2023-10-26T23:26:48.828Z,99082.34
2023-10-26T23:29:29.218Z,99079.16
2023-10-26T23:32:05.364Z,99087.56
2023-10-26T23:34:39.151Z,99086.09
2023-10-26T23:37:12.828Z,99086.69
2023-10-26T23:39:46.762Z,99077.44
2023-10-26T23:42:19.842Z,99077.34
2023-10-26T23:44:53.438Z,99078.28
2023-10-26T23:47:29.351Z,99074.69
2023-10-26T23:50:02.884Z,99078.28
2023-10-26T23:52:39.111Z,99078.66
2023-10-26T23:55:13.123Z,99078.81
2023-10-26T23:57:46.182Z,99074.31
